Terminal Aerodrome Forecast
Issued by NWS

Home | Current Version | Previous Version | Text Only | Print | Product List | Glossary On
Versions: 1 2 3 4 5 6 7 8 9 10 11 12 13 14
000
FTUS42 TJSJ 282300 RRA
TAFJPS
TAF
TJPS 282345Z 0100/0124 07010KT P6SM VCSH SCT025 BKN035
     FM010100 VRB05KT P6SM FEW030
     FM011500 13012KT P6SM FEW030 SCT060
      AMD NOT SKED TIL 010300=

USA.gov is the U.S. government's official web portal to all federal, state and local government web resources and services.